Aviation Digital Data Service (ADDS)

Output produced by METARs form (0745 UTC 23 February 2019)
found at http://www.aviationweather.gov/metar/data/
 
METAR text: EPSC 230730Z 17006KT CAVOK M03/M08 Q1045
Conditions at: EPSC (SZCZECIN/GOLENIO, PL) observed 0730 UTC 23 February 2019
Temperature: -3.0°C (27°F)
Dewpoint: -8.0°C (18°F) [RH = 68%]
Pressure (altimeter): 30.86 inches Hg (1045.0 mb)
Winds: from the S (170 degrees) at 7 MPH (6 knots; 3.1 m/s)
Visibility: 6 or more miles (10+ km)
Ceiling: ceiling and visibility are OK
Clouds: unknown
Weather: no significant weather observed at this time

METAR text: EPSC 230700Z 16004KT CAVOK M03/M09 Q1045
Conditions at: EPSC (SZCZECIN/GOLENIO, PL) observed 0700 UTC 23 February 2019
Temperature: -3.0°C (27°F)
Dewpoint: -9.0°C (16°F) [RH = 63%]
Pressure (altimeter): 30.86 inches Hg (1045.0 mb)
Winds: from the SSE (160 degrees) at 5 MPH (4 knots; 2.1 m/s)
Visibility: 6 or more miles (10+ km)
Ceiling: ceiling and visibility are OK
Clouds: unknown
Weather: no significant weather observed at this time

Forecast for: EPSC (SZCZECIN/GOLENIO, PL)
Text: TAF EPSC 230530Z 2306/2406 20008KT CAVOK
Forecast period: 0600 UTC 23 February 2019 to 0600 UTC 24 February 2019
Forecast type: FROM: standard forecast or significant change
Winds: from the SSW (200 degrees) at 9 MPH (8 knots; 4.1 m/s)
Visibility: 6 or more miles 10+ km)
Ceiling: unknown
Clouds: missing
Weather: NSW  (no significant weather)